createdAt,value
2023-05-07T00:00:32.652Z,250.00
2023-05-07T00:01:32.671Z,247.97
2023-05-07T00:02:32.810Z,249.66
2023-05-07T00:03:32.859Z,243.62
2023-05-07T00:04:32.855Z,242.39
2023-05-07T00:05:32.842Z,245.34
2023-05-07T00:06:32.913Z,246.58
2023-05-07T00:07:33.016Z,249.13
2023-05-07T00:08:32.999Z,246.81
2023-05-07T00:09:33.015Z,245.13
2023-05-07T00:10:33.182Z,248.48
2023-05-07T00:11:34.154Z,248.31
2023-05-07T00:12:33.177Z,247.66
2023-05-07T00:13:33.224Z,249.11
2023-05-07T00:14:33.258Z,248.71
2023-05-07T00:15:33.329Z,244.32
2023-05-07T00:16:33.367Z,241.74
2023-05-07T00:17:33.448Z,242.83
2023-05-07T00:18:33.444Z,240.48
2023-05-07T00:19:33.492Z,245.54
2023-05-07T00:20:35.566Z,242.80
2023-05-07T00:21:33.785Z,241.53
2023-05-07T00:22:33.830Z,246.10
2023-05-07T00:23:33.841Z,243.13
2023-05-07T00:24:33.899Z,249.00
2023-05-07T00:25:33.950Z,242.66
2023-05-07T00:26:33.973Z,242.51
2023-05-07T00:27:34.036Z,246.48
2023-05-07T00:28:34.084Z,249.02
2023-05-07T00:29:34.120Z,245.84
2023-05-07T00:30:34.176Z,247.78
2023-05-07T00:31:34.286Z,245.99
2023-05-07T00:32:34.280Z,248.81
2023-05-07T00:33:34.305Z,246.52
2023-05-07T00:34:34.372Z,245.40
2023-05-07T00:35:34.423Z,245.61
2023-05-07T00:36:34.486Z,240.50
2023-05-07T00:37:34.519Z,242.63
2023-05-07T00:38:34.544Z,242.48
2023-05-07T00:39:34.598Z,244.91
2023-05-07T00:40:34.673Z,245.41
2023-05-07T00:41:34.721Z,244.17
2023-05-07T00:42:34.739Z,243.62
2023-05-07T00:43:34.797Z,241.80
2023-05-07T00:44:34.838Z,238.66
2023-05-07T00:45:34.920Z,245.76
2023-05-07T00:46:35.144Z,242.16
2023-05-07T00:47:35.045Z,243.26
2023-05-07T00:48:35.046Z,244.55
2023-05-07T00:49:35.099Z,244.71
2023-05-07T00:50:35.157Z,243.42
2023-05-07T00:51:35.215Z,244.52
2023-05-07T00:52:35.280Z,244.54
2023-05-07T00:53:35.327Z,243.69
2023-05-07T00:54:35.386Z,246.96
2023-05-07T00:55:35.423Z,243.79
2023-05-07T00:56:35.483Z,243.93
2023-05-07T00:57:35.604Z,243.43
2023-05-07T00:58:35.594Z,247.80
2023-05-07T00:59:35.658Z,247.26
2023-05-07T01:00:35.715Z,250.00
2023-05-07T01:01:35.846Z,246.92
2023-05-07T01:02:35.890Z,246.59
2023-05-07T01:03:35.858Z,248.70
2023-05-07T01:04:36.052Z,246.05
2023-05-07T01:05:35.975Z,247.56
2023-05-07T01:06:36.011Z,246.69
2023-05-07T01:07:36.058Z,246.51
2023-05-07T01:08:36.148Z,247.67
2023-05-07T01:09:36.385Z,246.48
2023-05-07T01:10:36.223Z,246.58
2023-05-07T01:11:36.248Z,247.54
2023-05-07T01:12:36.376Z,247.21
2023-05-07T01:13:36.374Z,248.02
2023-05-07T01:14:36.434Z,248.72
2023-05-07T01:15:36.466Z,247.99
2023-05-07T01:16:36.552Z,245.71
2023-05-07T01:17:36.610Z,245.19
2023-05-07T01:18:36.665Z,248.91
2023-05-07T01:19:36.701Z,246.98
2023-05-07T01:20:36.751Z,239.83
2023-05-07T01:21:36.799Z,244.54
2023-05-07T01:22:36.860Z,244.02
2023-05-07T01:23:36.930Z,245.41
2023-05-07T01:24:36.972Z,244.12
2023-05-07T01:25:37.038Z,243.71
2023-05-07T01:26:37.098Z,246.66
2023-05-07T01:27:37.147Z,247.05
2023-05-07T01:28:37.219Z,248.47
2023-05-07T01:29:37.266Z,248.28
2023-05-07T01:30:37.308Z,249.51
2023-05-07T01:31:37.459Z,249.52
2023-05-07T01:32:37.486Z,246.74
2023-05-07T01:33:37.482Z,245.98
2023-05-07T01:34:37.525Z,243.31
2023-05-07T01:35:37.593Z,245.62
2023-05-07T01:36:37.658Z,246.02
2023-05-07T01:37:37.702Z,248.29
2023-05-07T01:38:37.765Z,247.52
2023-05-07T01:39:37.806Z,247.86
2023-05-07T01:40:37.861Z,247.37
2023-05-07T01:41:37.955Z,243.80
2023-05-07T01:42:37.977Z,242.07
2023-05-07T01:43:38.103Z,237.06
2023-05-07T01:44:38.084Z,238.84
2023-05-07T01:45:38.178Z,245.44
2023-05-07T01:46:38.267Z,241.91
2023-05-07T01:47:38.318Z,243.64
2023-05-07T01:48:38.356Z,244.49
2023-05-07T01:49:38.367Z,245.58
2023-05-07T01:50:38.438Z,244.74
2023-05-07T01:51:38.505Z,246.57
2023-05-07T01:52:38.600Z,244.46
2023-05-07T01:53:38.612Z,244.83
2023-05-07T01:54:38.687Z,242.98
2023-05-07T01:55:38.751Z,248.11
2023-05-07T01:56:38.874Z,245.43
2023-05-07T01:57:38.879Z,245.28
2023-05-07T01:58:38.957Z,244.95
2023-05-07T01:59:39.071Z,247.71
2023-05-07T02:00:39.093Z,249.84
2023-05-07T02:01:39.200Z,247.28
2023-05-07T02:02:39.386Z,244.10
2023-05-07T02:03:39.368Z,246.01
2023-05-07T02:04:39.327Z,248.73
2023-05-07T02:05:39.373Z,250.00
2023-05-07T02:06:39.436Z,246.60
2023-05-07T02:07:39.523Z,247.83
2023-05-07T02:08:39.565Z,244.22
2023-05-07T02:09:39.612Z,245.81
2023-05-07T02:10:39.671Z,248.55
2023-05-07T02:11:39.733Z,248.30
2023-05-07T02:12:39.810Z,248.32
2023-05-07T02:13:39.852Z,245.47
2023-05-07T02:14:39.894Z,245.64
2023-05-07T02:15:40.020Z,247.64
2023-05-07T02:16:40.109Z,247.36
2023-05-07T02:17:40.468Z,248.82
2023-05-07T02:18:40.147Z,249.12
2023-05-07T02:19:40.226Z,249.60
2023-05-07T02:20:40.275Z,245.72
2023-05-07T02:21:40.298Z,244.25
2023-05-07T02:22:40.377Z,250.00
2023-05-07T02:23:40.438Z,245.35
2023-05-07T02:24:40.469Z,247.52
2023-05-07T02:25:40.551Z,246.37
2023-05-07T02:26:40.594Z,245.08
2023-05-07T02:27:40.674Z,246.36
2023-05-07T02:28:40.707Z,245.39
2023-05-07T02:29:40.790Z,248.72
2023-05-07T02:30:40.828Z,249.83
2023-05-07T02:31:41.033Z,247.65
2023-05-07T02:32:41.025Z,248.05
2023-05-07T02:33:41.002Z,248.23
2023-05-07T02:34:41.063Z,247.29
2023-05-07T02:35:41.106Z,245.74
2023-05-07T02:36:41.188Z,250.00
2023-05-07T02:37:41.248Z,247.74
2023-05-07T02:38:41.285Z,247.23
2023-05-07T02:39:41.338Z,245.37
2023-05-07T02:40:41.406Z,244.21
2023-05-07T02:41:41.460Z,245.87
2023-05-07T02:42:41.565Z,247.97
2023-05-07T02:43:41.564Z,247.17
2023-05-07T02:44:41.653Z,247.94
2023-05-07T02:45:41.733Z,248.36
2023-05-07T02:46:41.752Z,247.09
2023-05-07T02:47:41.942Z,247.81
2023-05-07T02:48:41.878Z,247.46
2023-05-07T02:49:41.895Z,246.55
2023-05-07T02:50:41.962Z,249.22
2023-05-07T02:51:42.045Z,246.45
2023-05-07T02:52:42.067Z,245.07
2023-05-07T02:53:42.152Z,248.35
2023-05-07T02:54:42.191Z,246.60
2023-05-07T02:55:42.247Z,244.28
2023-05-07T02:56:42.311Z,248.60
2023-05-07T02:57:42.368Z,247.51
2023-05-07T02:58:42.400Z,245.09
2023-05-07T02:59:42.463Z,246.97
2023-05-07T03:00:42.530Z,249.40
2023-05-07T03:01:42.656Z,248.26
2023-05-07T03:02:42.691Z,247.86
2023-05-07T03:03:42.745Z,248.19
2023-05-07T03:04:42.794Z,247.81
2023-05-07T03:05:42.839Z,247.45
2023-05-07T03:06:42.895Z,249.26
2023-05-07T03:07:42.977Z,245.45
2023-05-07T03:08:43.008Z,245.28
2023-05-07T03:09:43.072Z,244.68
2023-05-07T03:10:43.122Z,245.41
2023-05-07T03:11:43.184Z,241.67
2023-05-07T03:12:43.313Z,243.01
2023-05-07T03:13:43.391Z,240.38
2023-05-07T03:14:43.368Z,242.45
2023-05-07T03:15:43.412Z,244.19
2023-05-07T03:16:43.456Z,246.89
2023-05-07T03:17:43.571Z,244.79
2023-05-07T03:18:43.680Z,244.16
2023-05-07T03:19:43.703Z,243.63
2023-05-07T03:20:43.756Z,244.22
2023-05-07T03:21:43.772Z,242.50
2023-05-07T03:22:43.826Z,243.81
2023-05-07T03:23:43.876Z,240.25
2023-05-07T03:24:43.938Z,243.16
2023-05-07T03:25:43.999Z,241.47
2023-05-07T03:26:44.058Z,241.75
2023-05-07T03:27:44.141Z,241.05
2023-05-07T03:28:44.206Z,239.43
2023-05-07T03:29:44.249Z,241.11
2023-05-07T03:30:44.313Z,238.80
2023-05-07T03:31:44.420Z,239.78
2023-05-07T03:32:44.445Z,236.35
2023-05-07T03:33:44.496Z,234.14
2023-05-07T03:34:44.545Z,234.87
2023-05-07T03:35:44.660Z,237.73
2023-05-07T03:36:44.690Z,233.57
2023-05-07T03:37:44.760Z,234.31
2023-05-07T03:38:44.792Z,234.62
2023-05-07T03:39:44.853Z,237.86
2023-05-07T03:40:44.906Z,234.74
2023-05-07T03:41:45.070Z,235.48
2023-05-07T03:42:45.119Z,234.94
2023-05-07T03:43:45.098Z,232.68
2023-05-07T03:44:45.143Z,233.66
2023-05-07T03:45:45.201Z,234.36
2023-05-07T03:46:45.359Z,231.23
2023-05-07T03:47:45.338Z,233.44
2023-05-07T03:48:45.372Z,234.14
2023-05-07T03:49:45.433Z,228.01
2023-05-07T03:50:45.484Z,232.57
2023-05-07T03:51:45.649Z,231.60
2023-05-07T03:52:45.613Z,229.78
2023-05-07T03:53:45.683Z,229.41
2023-05-07T03:54:45.717Z,228.86
2023-05-07T03:55:45.770Z,227.23
2023-05-07T03:56:45.837Z,230.47
2023-05-07T03:57:45.908Z,224.45
2023-05-07T03:58:45.929Z,228.45
2023-05-07T03:59:45.989Z,225.42
2023-05-07T04:00:46.031Z,227.45
2023-05-07T04:01:46.101Z,225.78
2023-05-07T04:02:46.240Z,226.03
2023-05-07T04:03:46.243Z,227.79
2023-05-07T04:04:46.237Z,226.37
2023-05-07T04:05:46.275Z,228.52
2023-05-07T04:06:46.302Z,224.65
2023-05-07T04:07:46.423Z,227.36
2023-05-07T04:08:46.382Z,225.40
2023-05-07T04:09:46.451Z,221.65
2023-05-07T04:10:46.500Z,221.66
2023-05-07T04:11:46.512Z,222.24
2023-05-07T04:12:46.615Z,223.37
2023-05-07T04:13:46.604Z,220.82
2023-05-07T04:14:46.679Z,222.27
2023-05-07T04:15:46.727Z,219.85
2023-05-07T04:16:46.916Z,222.72
2023-05-07T04:17:46.869Z,221.79
2023-05-07T04:18:46.912Z,223.03
2023-05-07T04:19:46.991Z,220.91
2023-05-07T04:20:47.066Z,224.15
2023-05-07T04:21:47.085Z,222.05
2023-05-07T04:22:47.137Z,219.30
2023-05-07T04:23:47.168Z,221.08
2023-05-07T04:24:47.222Z,222.88
2023-05-07T04:25:47.285Z,222.84
2023-05-07T04:26:47.320Z,222.54
2023-05-07T04:27:47.342Z,221.36
2023-05-07T04:28:47.344Z,225.72
2023-05-07T04:29:47.366Z,225.48
2023-05-07T04:30:47.409Z,224.60
2023-05-07T04:31:47.477Z,223.37
2023-05-07T04:32:47.525Z,224.15
2023-05-07T04:33:47.544Z,224.23
2023-05-07T04:34:47.606Z,223.13
2023-05-07T04:35:47.653Z,223.79
2023-05-07T04:36:47.695Z,225.50
2023-05-07T04:37:47.761Z,227.07
2023-05-07T04:38:47.788Z,227.11
2023-05-07T04:39:47.903Z,222.49
2023-05-07T04:40:47.899Z,223.44
2023-05-07T04:41:47.963Z,228.03
2023-05-07T04:42:48.382Z,228.34
2023-05-07T04:43:48.107Z,224.78
2023-05-07T04:44:48.164Z,228.21
2023-05-07T04:45:48.260Z,226.04
2023-05-07T04:46:48.271Z,229.24
2023-05-07T04:47:48.390Z,226.57
2023-05-07T04:48:48.408Z,225.43
2023-05-07T04:49:48.463Z,225.98
2023-05-07T04:50:48.516Z,227.15
2023-05-07T04:51:48.582Z,223.22
2023-05-07T04:52:48.663Z,224.55
2023-05-07T04:53:48.720Z,225.42
2023-05-07T04:54:48.771Z,225.67
2023-05-07T04:55:48.896Z,225.12
2023-05-07T04:56:48.971Z,225.20
2023-05-07T04:57:49.057Z,224.52
2023-05-07T04:58:49.071Z,226.97
2023-05-07T04:59:49.106Z,225.89
2023-05-07T05:00:49.166Z,227.57
2023-05-07T05:01:49.247Z,226.25
2023-05-07T05:02:49.425Z,227.00
2023-05-07T05:03:49.361Z,222.54
2023-05-07T05:04:49.371Z,222.13
2023-05-07T05:05:49.426Z,224.73
2023-05-07T05:06:49.472Z,220.34
2023-05-07T05:07:49.518Z,220.25
2023-05-07T05:08:49.582Z,220.24
2023-05-07T05:09:49.619Z,217.33
2023-05-07T05:10:49.650Z,216.56
2023-05-07T05:11:49.709Z,223.99
2023-05-07T05:12:49.797Z,223.50
2023-05-07T05:13:49.784Z,223.22
2023-05-07T05:14:49.857Z,215.31
2023-05-07T05:15:49.916Z,211.67
2023-05-07T05:16:49.929Z,206.06
2023-05-07T05:17:50.005Z,205.75
2023-05-07T05:18:50.030Z,207.27
2023-05-07T05:19:50.047Z,206.01
2023-05-07T05:20:50.111Z,203.40
2023-05-07T05:21:50.153Z,201.87
2023-05-07T05:22:50.193Z,200.60
2023-05-07T05:23:50.238Z,200.66
2023-05-07T05:24:50.276Z,200.93
2023-05-07T05:25:50.316Z,203.93
2023-05-07T05:26:50.359Z,202.36
2023-05-07T05:27:50.440Z,203.72
2023-05-07T05:28:50.402Z,203.54
2023-05-07T05:29:50.458Z,203.83
2023-05-07T05:30:50.488Z,204.19
2023-05-07T05:31:50.594Z,206.83
2023-05-07T05:32:50.594Z,210.42
2023-05-07T05:33:50.589Z,213.35
2023-05-07T05:34:50.641Z,223.81
2023-05-07T05:35:50.688Z,229.74
2023-05-07T05:36:50.840Z,235.41
2023-05-07T05:37:50.979Z,237.79
2023-05-07T05:38:51.093Z,236.97
2023-05-07T05:39:51.231Z,238.61
2023-05-07T05:40:51.386Z,237.29
2023-05-07T05:41:51.508Z,241.33
2023-05-07T05:42:51.624Z,245.79
2023-05-07T05:43:51.826Z,250.37
2023-05-07T05:44:51.897Z,247.94
2023-05-07T05:45:52.153Z,249.92
2023-05-07T05:46:52.419Z,245.58
2023-05-07T05:47:52.480Z,244.37
2023-05-07T05:48:52.608Z,243.55
2023-05-07T05:49:52.713Z,242.90
2023-05-07T05:50:52.856Z,240.78
2023-05-07T05:51:53.017Z,239.79
2023-05-07T05:52:53.155Z,237.88
2023-05-07T05:53:53.262Z,237.41
2023-05-07T05:54:53.409Z,234.65
2023-05-07T05:55:53.541Z,233.28
2023-05-07T05:56:53.696Z,230.44
2023-05-07T05:57:53.855Z,229.38
2023-05-07T05:58:54.077Z,231.55
2023-05-07T05:59:54.105Z,231.73
2023-05-07T06:00:54.242Z,232.17
2023-05-07T06:01:54.386Z,230.45
2023-05-07T06:02:54.448Z,229.38
2023-05-07T06:03:54.570Z,233.70
2023-05-07T06:04:54.796Z,232.80
2023-05-07T06:05:54.827Z,235.10
2023-05-07T06:06:55.000Z,238.01
2023-05-07T06:07:55.165Z,240.21
2023-05-07T06:08:55.258Z,238.91
2023-05-07T06:09:55.232Z,241.20
2023-05-07T06:10:55.237Z,244.43
2023-05-07T06:11:55.258Z,239.36
2023-05-07T06:12:55.347Z,238.24
2023-05-07T06:13:55.274Z,239.64
2023-05-07T06:14:55.391Z,237.64
2023-05-07T06:15:55.405Z,239.06
2023-05-07T06:16:55.523Z,241.04
2023-05-07T06:17:55.604Z,240.66
2023-05-07T06:18:55.633Z,240.83
2023-05-07T06:19:55.682Z,239.87
2023-05-07T06:20:55.732Z,238.75
2023-05-07T06:21:55.785Z,240.59
2023-05-07T06:22:55.870Z,241.74
2023-05-07T06:23:55.923Z,241.13
2023-05-07T06:24:56.043Z,242.77
2023-05-07T06:25:56.032Z,244.16
2023-05-07T06:26:56.109Z,244.77
2023-05-07T06:27:56.144Z,243.60
2023-05-07T06:28:56.134Z,242.89
2023-05-07T06:29:56.180Z,241.78
2023-05-07T06:30:56.322Z,243.05
2023-05-07T06:31:56.421Z,245.07
2023-05-07T06:32:56.433Z,244.76
2023-05-07T06:33:56.406Z,244.33
2023-05-07T06:34:56.373Z,242.96
2023-05-07T06:35:56.439Z,243.66
2023-05-07T06:36:56.487Z,244.07
2023-05-07T06:37:56.575Z,241.04
2023-05-07T06:38:56.543Z,241.33
2023-05-07T06:39:57.565Z,241.17
2023-05-07T06:40:56.652Z,243.01
2023-05-07T06:41:56.613Z,243.79
2023-05-07T06:42:56.626Z,239.25
2023-05-07T06:43:56.572Z,241.47
2023-05-07T06:44:56.562Z,238.70
2023-05-07T06:45:56.593Z,236.78
2023-05-07T06:46:56.656Z,239.24
2023-05-07T06:47:56.585Z,240.02
2023-05-07T06:48:56.547Z,237.70
2023-05-07T06:49:56.540Z,238.96
2023-05-07T06:50:56.528Z,241.41
2023-05-07T06:51:56.530Z,241.30
2023-05-07T06:52:56.504Z,240.40
2023-05-07T06:53:56.495Z,243.83
2023-05-07T06:54:56.504Z,239.66
2023-05-07T06:55:56.495Z,241.00
2023-05-07T06:56:56.475Z,242.34
2023-05-07T06:57:56.498Z,241.99
2023-05-07T06:58:56.452Z,241.54
2023-05-07T06:59:56.442Z,240.21
2023-05-07T07:00:56.463Z,240.38
2023-05-07T07:01:56.565Z,235.68
2023-05-07T07:02:56.523Z,232.92
2023-05-07T07:03:56.461Z,237.09
2023-05-07T07:04:56.470Z,230.99
2023-05-07T07:05:56.412Z,231.00
2023-05-07T07:06:56.404Z,232.43
2023-05-07T07:07:56.414Z,231.64
2023-05-07T07:08:56.401Z,233.06
2023-05-07T07:09:56.378Z,233.51
2023-05-07T07:10:56.401Z,236.98
2023-05-07T07:11:56.400Z,231.85
2023-05-07T07:12:56.453Z,230.47
2023-05-07T07:13:56.356Z,230.97
2023-05-07T07:14:56.336Z,234.90
2023-05-07T07:15:56.381Z,231.58
2023-05-07T07:16:56.398Z,234.04
2023-05-07T07:17:56.386Z,233.19
2023-05-07T07:18:56.362Z,233.73
2023-05-07T07:19:56.407Z,230.67
2023-05-07T07:20:56.338Z,234.16
2023-05-07T07:21:56.342Z,238.35
2023-05-07T07:22:56.334Z,235.96
2023-05-07T07:23:56.365Z,235.13
2023-05-07T07:24:56.410Z,234.96
2023-05-07T07:25:56.366Z,229.57
2023-05-07T07:26:56.467Z,232.75
2023-05-07T07:27:56.448Z,228.43
2023-05-07T07:28:56.414Z,227.31
2023-05-07T07:29:56.419Z,226.51
2023-05-07T07:30:56.456Z,227.72
2023-05-07T07:31:56.479Z,226.20
2023-05-07T07:32:56.545Z,220.59
2023-05-07T07:33:56.565Z,223.72
2023-05-07T07:34:56.581Z,221.97
2023-05-07T07:35:56.539Z,222.96
2023-05-07T07:36:56.553Z,221.01
2023-05-07T07:37:56.609Z,218.77
2023-05-07T07:38:56.616Z,216.91
2023-05-07T07:39:56.580Z,218.48
2023-05-07T07:40:56.606Z,214.57
2023-05-07T07:41:56.600Z,216.86
2023-05-07T07:42:56.635Z,212.21
2023-05-07T07:43:56.629Z,214.04
2023-05-07T07:44:56.649Z,210.38
2023-05-07T07:45:56.638Z,209.18
2023-05-07T07:46:56.787Z,210.20
2023-05-07T07:47:56.750Z,207.86
2023-05-07T07:48:56.725Z,206.56
2023-05-07T07:49:56.699Z,203.25
2023-05-07T07:50:56.738Z,202.86
2023-05-07T07:51:56.725Z,202.86
2023-05-07T07:52:56.751Z,198.47
2023-05-07T07:53:56.856Z,198.19
2023-05-07T07:54:56.843Z,194.05
2023-05-07T07:55:59.441Z,188.51
2023-05-07T07:56:56.786Z,191.54
2023-05-07T07:57:56.724Z,194.56
2023-05-07T07:58:56.746Z,192.85
2023-05-07T07:59:56.796Z,186.81
2023-05-07T08:00:56.723Z,186.75
2023-05-07T08:01:56.796Z,187.37
2023-05-07T08:02:56.939Z,183.15
2023-05-07T08:03:56.751Z,178.73
2023-05-07T08:04:56.803Z,179.69
2023-05-07T08:05:56.686Z,175.45
2023-05-07T08:06:56.670Z,176.47
2023-05-07T08:07:56.690Z,175.22
2023-05-07T08:08:56.654Z,171.62
2023-05-07T08:09:56.639Z,171.84
2023-05-07T08:10:56.657Z,171.99
2023-05-07T08:11:56.658Z,169.13
2023-05-07T08:12:56.724Z,168.26
2023-05-07T08:13:56.620Z,168.09
2023-05-07T08:14:56.681Z,161.24
2023-05-07T08:15:56.603Z,157.82
2023-05-07T08:16:56.668Z,164.44
2023-05-07T08:17:56.667Z,159.79
2023-05-07T08:18:56.590Z,160.74
2023-05-07T08:19:56.595Z,156.36
2023-05-07T08:20:56.598Z,157.08
2023-05-07T08:21:56.628Z,154.55
2023-05-07T08:22:56.702Z,156.58
2023-05-07T08:23:56.582Z,153.38
2023-05-07T08:24:56.573Z,152.31
2023-05-07T08:25:56.542Z,150.24
2023-05-07T08:26:56.556Z,148.41
2023-05-07T08:27:56.550Z,146.58
2023-05-07T08:28:56.542Z,142.83
2023-05-07T08:29:56.553Z,142.72
2023-05-07T08:30:56.616Z,142.22
2023-05-07T08:31:56.524Z,139.48
2023-05-07T08:32:56.584Z,137.07
2023-05-07T08:33:56.615Z,138.97
2023-05-07T08:34:56.500Z,138.64
2023-05-07T08:35:56.480Z,133.94
2023-05-07T08:36:56.498Z,131.13
2023-05-07T08:37:56.506Z,132.14
2023-05-07T08:38:56.513Z,133.32
2023-05-07T08:39:56.481Z,135.14
2023-05-07T08:40:56.491Z,130.71
2023-05-07T08:41:56.577Z,129.00
2023-05-07T08:42:56.595Z,127.68
2023-05-07T08:43:56.615Z,125.56
2023-05-07T08:44:56.661Z,123.09
2023-05-07T08:45:56.792Z,125.08
2023-05-07T08:46:56.707Z,125.73
2023-05-07T08:47:56.760Z,122.52
2023-05-07T08:48:56.857Z,122.49
2023-05-07T08:49:56.850Z,125.06
2023-05-07T08:50:56.871Z,126.68
2023-05-07T08:51:56.896Z,123.29
2023-05-07T08:52:56.910Z,123.20
2023-05-07T08:53:56.907Z,119.76
2023-05-07T08:54:56.883Z,118.91
2023-05-07T08:55:56.937Z,120.12
2023-05-07T08:56:56.956Z,116.67
2023-05-07T08:57:56.963Z,120.22
2023-05-07T08:58:56.998Z,119.04
2023-05-07T08:59:57.010Z,117.31
2023-05-07T09:00:57.013Z,114.35
2023-05-07T09:01:57.132Z,111.59
2023-05-07T09:02:57.132Z,110.05
2023-05-07T09:03:57.216Z,109.97
2023-05-07T09:04:57.121Z,111.15
2023-05-07T09:05:58.091Z,107.19
2023-05-07T09:06:57.133Z,106.74
2023-05-07T09:07:58.309Z,107.42
2023-05-07T09:08:57.176Z,109.30
2023-05-07T09:09:57.163Z,108.38
2023-05-07T09:10:57.215Z,109.22
2023-05-07T09:11:57.195Z,108.82
2023-05-07T09:12:57.661Z,110.32
2023-05-07T09:13:57.330Z,113.33
2023-05-07T09:14:57.187Z,110.41
2023-05-07T09:15:57.212Z,109.96
2023-05-07T09:16:57.200Z,109.24
2023-05-07T09:17:57.256Z,106.82
2023-05-07T09:18:57.239Z,104.48
2023-05-07T09:19:57.287Z,105.22
2023-05-07T09:20:57.244Z,101.37
2023-05-07T09:21:57.239Z,102.19
2023-05-07T09:22:57.241Z,103.10
2023-05-07T09:23:57.256Z,103.55
2023-05-07T09:24:57.261Z,103.89
2023-05-07T09:25:57.317Z,101.99
2023-05-07T09:26:57.292Z,102.72
2023-05-07T09:27:57.320Z,99.02
2023-05-07T09:28:57.349Z,97.84
2023-05-07T09:29:57.332Z,96.32
2023-05-07T09:30:57.331Z,96.21
2023-05-07T09:31:57.371Z,96.56
2023-05-07T09:32:57.457Z,100.18
2023-05-07T09:33:57.328Z,95.65
2023-05-07T09:34:57.347Z,93.57
2023-05-07T09:35:57.368Z,95.14
2023-05-07T09:36:57.346Z,94.27
2023-05-07T09:37:57.358Z,85.45
2023-05-07T09:38:57.352Z,88.69
2023-05-07T09:39:57.362Z,88.69
2023-05-07T09:40:57.364Z,91.53
2023-05-07T09:41:57.356Z,93.28
2023-05-07T09:42:57.458Z,86.49
2023-05-07T09:43:57.342Z,82.62
2023-05-07T09:44:57.350Z,84.87
2023-05-07T09:45:57.416Z,81.75
2023-05-07T09:46:57.356Z,77.91
2023-05-07T09:47:57.417Z,78.95
2023-05-07T09:48:57.359Z,80.67
2023-05-07T09:49:57.353Z,77.76
2023-05-07T09:50:57.340Z,77.90
2023-05-07T09:51:57.329Z,76.70
2023-05-07T09:52:57.328Z,79.27
2023-05-07T09:53:57.329Z,76.12
2023-05-07T09:54:57.323Z,75.66
2023-05-07T09:55:57.319Z,70.03
2023-05-07T09:56:57.330Z,69.96
2023-05-07T09:57:57.343Z,67.32
2023-05-07T09:58:57.401Z,67.52
2023-05-07T09:59:57.354Z,69.00
2023-05-07T10:00:57.404Z,68.88
2023-05-07T10:01:57.384Z,67.80
2023-05-07T10:02:57.461Z,70.08
2023-05-07T10:03:57.496Z,67.39
2023-05-07T10:04:57.398Z,63.86
2023-05-07T10:05:57.385Z,62.31
2023-05-07T10:06:57.413Z,59.14
2023-05-07T10:07:57.395Z,55.64
2023-05-07T10:08:57.409Z,54.82
2023-05-07T10:09:57.403Z,53.64
2023-05-07T10:10:57.404Z,56.51
2023-05-07T10:11:57.388Z,53.35
2023-05-07T10:12:57.425Z,56.18
2023-05-07T10:13:57.407Z,52.66
2023-05-07T10:14:57.454Z,54.33
2023-05-07T10:15:57.403Z,50.22
2023-05-07T10:16:57.497Z,49.73
2023-05-07T10:17:57.469Z,46.80
2023-05-07T10:18:57.412Z,53.20
2023-05-07T10:19:57.444Z,49.27
2023-05-07T10:20:57.450Z,49.93
2023-05-07T10:21:57.458Z,47.00
2023-05-07T10:22:57.426Z,44.61
2023-05-07T10:23:57.423Z,38.35
2023-05-07T10:24:57.438Z,34.81
2023-05-07T10:26:01.009Z,35.65
2023-05-07T10:26:57.456Z,35.91
2023-05-07T10:27:57.405Z,36.84
2023-05-07T10:28:57.396Z,36.97
2023-05-07T10:29:57.378Z,34.41
2023-05-07T10:30:57.498Z,30.11
2023-05-07T10:31:57.380Z,26.25
2023-05-07T10:32:57.369Z,27.73
2023-05-07T10:33:57.363Z,29.45
2023-05-07T10:34:57.366Z,34.84
2023-05-07T10:35:57.340Z,34.96
2023-05-07T10:36:57.360Z,34.02
2023-05-07T10:37:57.331Z,31.50
2023-05-07T10:38:57.328Z,28.79
2023-05-07T10:39:57.301Z,27.79
2023-05-07T10:40:57.327Z,34.35
2023-05-07T10:41:57.287Z,27.58
2023-05-07T10:42:57.330Z,32.40
2023-05-07T10:43:57.313Z,26.78
2023-05-07T10:44:57.273Z,25.86
2023-05-07T10:45:57.293Z,25.01
2023-05-07T10:46:57.325Z,30.17
2023-05-07T10:47:57.673Z,31.64
2023-05-07T10:48:57.300Z,32.74
2023-05-07T10:49:57.295Z,34.82
2023-05-07T10:50:57.346Z,36.77
2023-05-07T10:51:57.294Z,34.24
2023-05-07T10:52:57.270Z,32.26
2023-05-07T10:53:57.318Z,31.68
2023-05-07T10:54:57.250Z,34.60
2023-05-07T10:55:57.239Z,36.06
2023-05-07T10:56:57.190Z,30.45
2023-05-07T10:57:57.268Z,30.23
2023-05-07T10:58:57.270Z,27.28
2023-05-07T10:59:59.222Z,25.56
2023-05-07T11:00:57.187Z,29.52
2023-05-07T11:01:57.313Z,26.90
2023-05-07T11:02:57.308Z,35.12
2023-05-07T11:03:57.148Z,36.22
2023-05-07T11:04:57.183Z,37.57
2023-05-07T11:05:57.123Z,33.83
2023-05-07T11:06:57.222Z,32.82
2023-05-07T11:07:57.158Z,34.96
2023-05-07T11:08:57.136Z,31.02
2023-05-07T11:09:57.121Z,35.71
2023-05-07T11:10:57.104Z,37.32
2023-05-07T11:11:57.131Z,34.28
2023-05-07T11:12:57.189Z,32.96
2023-05-07T11:13:57.103Z,28.96
2023-05-07T11:14:57.130Z,30.81
2023-05-07T11:15:57.113Z,26.65
2023-05-07T11:16:57.135Z,30.38
2023-05-07T11:17:57.128Z,29.39
2023-05-07T11:18:57.108Z,29.98
2023-05-07T11:19:57.124Z,25.35
2023-05-07T11:20:57.127Z,30.87
2023-05-07T11:21:57.128Z,30.68
2023-05-07T11:22:57.120Z,39.78
2023-05-07T11:23:57.141Z,40.70
2023-05-07T11:24:57.139Z,40.89
2023-05-07T11:25:57.126Z,36.03
2023-05-07T11:26:57.186Z,35.24
2023-05-07T11:27:57.127Z,29.09
2023-05-07T11:28:57.153Z,30.52
2023-05-07T11:29:57.166Z,27.45
2023-05-07T11:30:57.174Z,36.57
2023-05-07T11:31:57.211Z,30.86
2023-05-07T11:32:57.259Z,25.62
2023-05-07T11:33:57.177Z,25.08
2023-05-07T11:34:57.234Z,27.54
2023-05-07T11:35:57.210Z,29.96
2023-05-07T11:36:57.182Z,32.23
2023-05-07T11:37:57.181Z,33.19
2023-05-07T11:38:57.252Z,34.25
2023-05-07T11:39:57.308Z,28.69
2023-05-07T11:40:57.289Z,32.36
2023-05-07T11:41:57.262Z,31.45
2023-05-07T11:42:57.335Z,33.12
2023-05-07T11:43:57.288Z,32.12
2023-05-07T11:44:57.258Z,36.96
2023-05-07T11:45:57.266Z,32.87
2023-05-07T11:46:57.681Z,38.07
2023-05-07T11:47:57.395Z,38.52
2023-05-07T11:48:57.363Z,35.43
2023-05-07T11:49:57.258Z,28.87
2023-05-07T11:50:57.297Z,33.09
2023-05-07T11:51:57.296Z,32.90
2023-05-07T11:52:57.410Z,29.35
2023-05-07T11:53:57.359Z,38.12
2023-05-07T11:54:57.354Z,34.15
2023-05-07T11:55:57.347Z,37.03
2023-05-07T11:56:57.377Z,35.39
2023-05-07T11:57:57.385Z,32.32
2023-05-07T11:58:57.363Z,29.51
2023-05-07T11:59:57.366Z,32.86
2023-05-07T12:00:57.352Z,30.10
2023-05-07T12:01:57.370Z,30.22
2023-05-07T12:02:57.443Z,25.00
2023-05-07T12:03:57.395Z,33.35
2023-05-07T12:04:57.393Z,36.17
2023-05-07T12:05:57.360Z,33.79
2023-05-07T12:06:57.369Z,29.70
2023-05-07T12:07:57.421Z,30.24
2023-05-07T12:08:57.388Z,29.87
2023-05-07T12:09:57.408Z,32.80
2023-05-07T12:10:57.395Z,29.64
2023-05-07T12:11:57.418Z,28.49
2023-05-07T12:12:57.479Z,34.37
2023-05-07T12:13:59.219Z,37.92
2023-05-07T12:14:57.428Z,25.96
2023-05-07T12:15:57.457Z,31.75
2023-05-07T12:16:57.507Z,33.56
2023-05-07T12:17:57.753Z,27.11
2023-05-07T12:18:57.496Z,37.13
2023-05-07T12:19:57.499Z,31.79
2023-05-07T12:20:57.509Z,30.35
2023-05-07T12:21:57.529Z,27.87
2023-05-07T12:22:57.543Z,32.80
2023-05-07T12:23:57.518Z,31.85
2023-05-07T12:24:57.585Z,31.55
2023-05-07T12:25:57.522Z,35.19
2023-05-07T12:26:57.550Z,29.51
2023-05-07T12:27:57.535Z,38.56
2023-05-07T12:28:57.539Z,36.49
2023-05-07T12:29:57.546Z,39.42
2023-05-07T12:30:57.556Z,39.30
2023-05-07T12:31:57.615Z,39.72
2023-05-07T12:32:57.623Z,46.59
2023-05-07T12:33:57.572Z,50.17
2023-05-07T12:34:57.581Z,37.36